• Join FlightAware (Why Join?)
  • Login
  • US Flag 
05:27AM EDT


 

Airport Tracker/Info


-or-


 

Live Flight TrackerFlight Track Log ✈ N929SR ✈ 09-Apr-2013 ✈ KBIL - KPDK

Flight Track Log - Related Links

Times and Time Zones

All times are in EDT time to prevent confusion due to time zone crossing. See the N929SR flight status page for this flight to view local times or setup timezone preferences in your user account.

Time Position Orientation Groundspeed Altitude Reporting Facility
EDT Latitude Longitude Course Direction KTS MPH feet Rate Location/Type
07:10AM 45.7892 -108.4656 114° Southeast 216 249 6,400  Level Salt Lake Center
07:11AM 45.7597 -108.3686 113° Southeast 265 305 12,000 4,620 Climbing Salt Lake Center
07:12AM 45.7292 -108.2683 114° Southeast 278 320 15,700 3,360 Climbing Salt Lake Center
07:13AM 45.6947 -108.1536 113° Southeast 310 357 18,800 3,000 Climbing Salt Lake Center
07:14AM 45.6583 -108.0344 114° Southeast 328 377 21,800 2,700 Climbing Salt Lake Center
07:15AM 45.5041 -107.5551 114° Southeast  Level FlightAware Approximate
07:15AM 45.6200 -107.9086 113° Southeast 354 407 24,200  Level Salt Lake Center
07:16AM 45.5722 -107.7533 114° Southeast 379 436 26,900 2,580 Climbing Salt Lake Center
07:17AM 45.5292 -107.6117 113° Southeast 403 464 29,400 2,520 Climbing Salt Lake Center
07:18AM 45.4831 -107.4642 114° Southeast 422 486 32,000 2,700 Climbing Salt Lake Center
07:19AM 45.4364 -107.3164 114° Southeast 427 491 34,900 2,820 Climbing Salt Lake Center
07:20AM 45.3842 -107.1500 114° Southeast 413 475 37,700 2,340 Climbing Salt Lake Center
07:21AM 45.3392 -107.0072 114° Southeast 411 473 39,600 1,620 Climbing Salt Lake Center
07:22AM 45.2958 -106.8731 115° Southeast 395 455 41,000 660 Climbing Salt Lake Center
07:23AM 45.2497 -106.7294 114° Southeast 406 467 41,000  Level Salt Lake Center
07:24AM 45.1922 -106.5528 115° Southeast 431 496 41,000  Level Salt Lake Center
07:25AM 45.1414 -106.3978 115° Southeast 445 512 41,000  Level Salt Lake Center
07:26AM 45.0933 -106.2461 114° Southeast 444 511 41,000  Level Salt Lake Center
07:27AM 45.0439 -106.0931 115° Southeast 444 511 41,000  Level Salt Lake Center
07:28AM 44.9828 -105.9147 116° Southeast 449 517 41,000  Level Salt Lake Center
07:28AM 44.9569 -105.8381 115° Southeast 450 518 41,000  Level Denver Center
07:29AM 44.9050 -105.6833 115° Southeast 454 522 41,000  Level Denver Center
07:30AM 44.8453 -105.5031 115° Southeast 454 522 41,000  Level Denver Center
07:31AM 44.7933 -105.3494 115° Southeast 453 521 41,000  Level Denver Center
07:32AM 44.7433 -105.2006 115° Southeast 449 517 41,000  Level Denver Center
07:33AM 44.6908 -105.0467 116° Southeast 454 522 41,000  Level Denver Center
07:34AM 44.6300 -104.8700 116° Southeast 450 518 41,000  Level Denver Center
07:35AM 44.5772 -104.7200 116° Southeast 448 516 41,000  Level Denver Center
07:36AM 44.5239 -104.5678 116° Southeast 452 520 41,000  Level Denver Center
07:37AM 44.4717 -104.4172 116° Southeast 447 514 41,000  Level Denver Center
07:38AM 44.4106 -104.2450 116° Southeast 442 509 41,000  Level Denver Center
07:39AM 44.3581 -104.0958 116° Southeast 444 511 41,000  Level Denver Center
07:40AM 44.3053 -103.9494 117° Southeast 440 506 41,000  Level Denver Center
07:41AM 44.2439 -103.7775 116° Southeast 443 510 41,000  Level Denver Center
07:42AM 44.1900 -103.6294 117° Southeast 445 512 41,000  Level Denver Center
07:43AM 44.1369 -103.4831 117° Southeast 444 511 41,000  Level Denver Center
07:44AM 44.0842 -103.3364 117° Southeast 443 510 41,000  Level Denver Center
07:45AM 44.0228 -103.1686 117° Southeast 438 504 41,000  Level Denver Center
07:46AM 43.9711 -103.0269 117° Southeast 433 498 41,000  Level Denver Center
07:47AM 43.9189 -102.8875 117° Southeast 429 494 41,000  Level Denver Center
07:48AM 43.8644 -102.7442 118° Southeast 433 498 41,000  Level Denver Center
07:49AM 43.8017 -102.5747 117° Southeast 440 506 41,000  Level Denver Center
07:50AM 43.7478 -102.4317 118° Southeast 439 505 41,000  Level Denver Center
07:51AM 43.6936 -102.2917 118° Southeast 435 501 41,000  Level Denver Center
07:52AM 43.6419 -102.1528 117° Southeast 426 490 41,000  Level Denver Center
07:53AM 43.5872 -102.0119 118° Southeast 427 491 41,000  Level Denver Center
07:54AM 43.5314 -101.8664 118° Southeast 430 495 41,000  Level Denver Center
07:55AM 43.4756 -101.7206 118° Southeast 433 498 41,000  Level Denver Center
07:56AM 43.4292 -101.6033 119° Southeast 435 501 41,000  Level Denver Center
07:57AM 43.3461 -101.4422 125° Southeast 429 494 41,000  Level Denver Center
07:58AM 43.2536 -101.2892 130° Southeast 435 501 41,000  Level Denver Center
07:59AM 43.1781 -101.1636 130° Southeast 430 495 41,000  Level Denver Center
08:01AM 43.0717 -100.9861 129° Southeast 432 497 41,000  Level Minneapolis Center
08:01AM 43.0267 -100.9086 128° Southeast 430 495 41,000  Level Denver Center
08:02AM 42.9539 -100.7847 129° Southeast 420 483 41,000  Level Denver Center
08:03AM 42.8814 -100.6611 129° Southeast 419 482 41,000  Level Denver Center
08:04AM 42.8089 -100.5358 128° Southeast 420 483 41,000  Level Denver Center
08:05AM 42.7367 -100.4122 128° Southeast 417 480 41,000  Level Denver Center
08:06AM 42.6653 -100.2911 129° Southeast 420 483 41,000  Level Denver Center
08:07AM 42.5947 -100.1689 128° Southeast 426 490 41,000  Level Denver Center
08:08AM 42.5486 -100.0906 129° Southeast 422 486 41,000  Level Minneapolis Center
08:08AM 42.5261 -100.0492 126° Southeast 423 487 41,000  Level Denver Center
08:09AM 42.4481 -99.9119 128° Southeast 422 486 41,000  Level Denver Center
08:10AM 42.4061 -99.8372 127° Southeast 421 484 41,000  Level Minneapolis Center
08:11AM 42.3389 -99.7056 125° Southeast 422 486 41,000  Level Minneapolis Center
08:11AM 42.3117 -99.6506 124° Southeast 425 489 41,000  Level Denver Center
08:12AM 42.2442 -99.5183 125° Southeast 427 491 41,000  Level Denver Center
08:13AM 42.1764 -99.3864 125° Southeast 427 491 41,000  Level Denver Center
08:14AM 42.1367 -99.3042 123° Southeast 431 496 41,000  Level Minneapolis Center
08:14AM 42.1075 -99.2517 127° Southeast 433 498 41,000  Level Denver Center
08:15AM 42.0372 -99.1197 126° Southeast 433 498 41,000  Level Denver Center
08:16AM 41.9828 -99.0128 124° Southeast 433 498 41,000  Level Minneapolis Center
08:17AM 41.9125 -98.8800 125° Southeast 434 499 41,000  Level Minneapolis Center
08:18AM 41.8442 -98.7458 124° Southeast 433 498 41,000  Level Minneapolis Center
08:19AM 41.7758 -98.6094 124° Southeast 436 502 41,000  Level Minneapolis Center
08:20AM 41.7103 -98.4678 122° Southeast 442 509 41,000  Level Minneapolis Center
08:21AM 41.6497 -98.3192 119° Southeast 447 514 41,000  Level Minneapolis Center
08:22AM 41.5900 -98.1714 118° Southeast 449 517 41,000  Level Minneapolis Center
08:23AM 41.5344 -98.0342 118° Southeast 446 513 41,000  Level Minneapolis Center
08:24AM 41.4733 -97.8886 119° Southeast 448 516 41,000  Level Minneapolis Center
08:25AM 41.4119 -97.7411 119° Southeast 454 522 41,000  Level Minneapolis Center
08:26AM 41.3386 -97.5647 119° Southeast 454 522 41,000  Level Minneapolis Center
08:27AM 41.2853 -97.4392 119° Southeast 447 514 41,000  Level Minneapolis Center
08:28AM 41.2181 -97.2853 120° Southeast 437 503 41,000  Level Minneapolis Center
08:29AM 41.1617 -97.1497 119° Southeast 428 493 41,000  Level Minneapolis Center
08:30AM 41.1044 -97.0161 120° Southeast 421 484 41,000  Level Minneapolis Center
08:31AM 41.0444 -96.8756 119° Southeast 432 497 41,000  Level Minneapolis Center
08:32AM 40.9825 -96.7303 119° Southeast 448 516 41,000  Level Minneapolis Center
08:33AM 40.9203 -96.5883 120° Southeast 450 518 41,000  Level Minneapolis Center
08:34AM 40.8586 -96.4458 120° Southeast 450 518 41,000  Level Minneapolis Center
08:35AM 40.7839 -96.2753 120° Southeast 450 518 41,000  Level Minneapolis Center
08:36AM 40.7228 -96.1333 120° Southeast 449 517 41,000  Level Minneapolis Center
08:37AM 40.6597 -95.9925 121° Southeast 449 517 41,000  Level Minneapolis Center
08:39AM 40.5969 -95.8508 120° Southeast 451 519 41,000  Level Minneapolis Center
08:40AM 40.5333 -95.7086 120° Southeast 451 519 41,000  Level Minneapolis Center
08:41AM 40.4697 -95.5656 120° Southeast 453 521 41,000  Level Minneapolis Center
08:42AM 40.4067 -95.4203 120° Southeast 457 526 41,000  Level Minneapolis Center
08:43AM 40.3422 -95.2769 121° Southeast 457 526 41,000  Level Minneapolis Center
08:44AM 40.2644 -95.1075 121° Southeast 455 524 41,000  Level Minneapolis Center
08:45AM 40.1883 -94.9353 120° Southeast 455 524 41,000  Level Minneapolis Center
08:46AM 40.1214 -94.7947 122° Southeast 457 526 41,000  Level Minneapolis Center
08:47AM 40.0597 -94.6606 121° Southeast 458 527 41,000  Level Minneapolis Center
08:48AM 39.9947 -94.5192 121° Southeast 458 527 41,000  Level Minneapolis Center
08:49AM 39.9289 -94.3789 121° Southeast 459 528 41,000  Level Minneapolis Center
08:50AM 39.8644 -94.2408 121° Southeast 454 522 41,000  Level Minneapolis Center
08:51AM 39.7986 -94.1028 122° Southeast 453 521 41,000  Level Minneapolis Center
08:52AM 39.7217 -93.9353 121° Southeast 455 524 41,000  Level Minneapolis Center
08:53AM 39.6553 -93.7978 122° Southeast 454 522 41,000  Level Minneapolis Center
08:54AM 39.5894 -93.6578 121° Southeast 457 526 41,000  Level Minneapolis Center
08:55AM 39.5097 -93.4922 122° Southeast 458 527 41,000  Level Kansas City Center
08:56AM 39.4428 -93.3528 122° Southeast 457 526 41,000  Level Kansas City Center
08:57AM 39.3781 -93.2178 122° Southeast 455 524 41,000  Level Kansas City Center
08:58AM 39.2975 -93.0522 122° Southeast 458 527 41,000  Level Kansas City Center
08:59AM 39.2322 -92.9200 122° Southeast 447 514 41,000  Level Kansas City Center
09:00AM 39.1661 -92.7831 122° Southeast 450 518 41,000  Level Kansas City Center
09:01AM 39.1006 -92.6461 122° Southeast 452 520 41,000  Level Kansas City Center
09:02AM 39.0328 -92.5092 122° Southeast 452 520 41,000  Level Kansas City Center
09:04AM 38.9514 -92.3431 122° Southeast 454 522 41,000  Level Kansas City Center
09:05AM 38.8836 -92.2064 122° Southeast 452 520 41,000  Level Kansas City Center
09:06AM 38.8153 -92.0728 123° Southeast 449 517 41,000  Level Kansas City Center
09:07AM 38.7467 -91.9367 123° Southeast 449 517 41,000  Level Kansas City Center
09:08AM 38.6783 -91.8008 123° Southeast 450 518 41,000  Level Kansas City Center
09:09AM 38.6083 -91.6636 123° Southeast 454 522 41,000  Level Kansas City Center
09:10AM 38.5386 -91.5278 123° Southeast 454 522 41,000  Level Kansas City Center
09:11AM 38.4703 -91.3919 123° Southeast 453 521 41,000  Level Kansas City Center
09:12AM 38.3903 -91.2403 124° Southeast 455 524 41,000  Level Kansas City Center
09:13AM 38.3233 -91.1083 123° Southeast 451 519 41,000  Level Kansas City Center
09:14AM 38.2553 -90.9761 123° Southeast 450 518 41,000  Level Kansas City Center
09:15AM 38.1869 -90.8456 124° Southeast 449 517 41,000  Level Kansas City Center
09:16AM 38.1181 -90.7139 124° Southeast 450 518 41,000  Level Kansas City Center
09:17AM 38.0500 -90.5817 123° Southeast 451 519 41,000  Level Kansas City Center
09:18AM 37.9661 -90.4236 124° Southeast 452 520 41,000  Level Kansas City Center
09:19AM 37.8967 -90.2911 124° Southeast 452 520 41,000  Level Kansas City Center
09:20AM 37.8275 -90.1625 124° Southeast 450 518 41,000  Level Kansas City Center
09:21AM 37.7578 -90.0311 124° Southeast 451 519 41,000  Level Kansas City Center
09:22AM 37.6875 -89.8983 124° Southeast 456 525 41,000  Level Kansas City Center
09:23AM 37.6169 -89.7675 124° Southeast 456 525 41,000  Level Kansas City Center
09:24AM 37.5453 -89.6275 123° Southeast 455 524 41,000  Level Kansas City Center
09:25AM 37.4742 -89.4961 124° Southeast 454 522 41,000  Level Kansas City Center
09:26AM 37.3872 -89.3375 125° Southeast 456 525 41,000  Level Kansas City Center
09:27AM 37.3436 -89.2639 127° Southeast 457 526 41,000  Level Memphis Center
09:28AM 37.2736 -89.1319 124° Southeast 457 526 41,000  Level Memphis Center
09:29AM 37.1994 -88.9975 125° Southeast 457 526 41,000  Level Memphis Center
09:30AM 37.1292 -88.8661 124° Southeast 462 532 41,000  Level Memphis Center
09:31AM 37.0547 -88.7350 125° Southeast 462 532 41,000  Level Memphis Center
09:32AM 36.9842 -88.6039 124° Southeast 462 532 41,000  Level Memphis Center
09:33AM 36.9092 -88.4706 125° Southeast 462 532 41,000  Level Memphis Center
09:34AM 36.8342 -88.3375 125° Southeast 467 537 41,000  Level Memphis Center
09:35AM 36.7611 -88.2072 125° Southeast 461 531 41,000  Level Memphis Center
09:36AM 36.6750 -88.0622 126° Southeast 466 536 41,000  Level Memphis Center
09:37AM 36.5975 -87.9325 127° Southeast 477 549 41,000  Level Memphis Center
09:38AM 36.5242 -87.8006 125° Southeast 469 540 41,000  Level Memphis Center
09:39AM 36.4483 -87.6661 125° Southeast 469 540 41,000  Level Memphis Center
09:40AM 36.3811 -87.5497 126° Southeast 469 540 41,000 -240 Level Memphis Center
09:41AM 36.3050 -87.4161 125° Southeast 476 548 40,600 -900 Descending Memphis Center
09:42AM 36.2289 -87.2875 126° Southeast 476 548 39,300 -1,440 Descending Memphis Center
09:43AM 36.1525 -87.1542 125° Southeast 471 542 37,800 -1,740 Descending Memphis Center
09:44AM 36.0739 -87.0186 126° Southeast 477 549 35,900 -1,500 Descending Memphis Center
09:45AM 35.9953 -86.8858 126° Southeast 477 549 34,900 -960 Descending Memphis Center
09:46AM 35.9164 -86.7483 125° Southeast 489 563 34,000 -960 Descending Memphis Center
09:47AM 35.8333 -86.6186 128° Southeast 489 563 33,000 -360 Descending Memphis Center
09:49AM 35.6147 -86.3811 139° Southeast 508 585 33,000  Level Atlanta Center
09:50AM 35.5083 -86.2608 137° Southeast 493 567 33,000 -180 Level Atlanta Center
09:51AM 35.4100 -86.1564 139° Southeast 481 554 32,700 -1,140 Descending Atlanta Center
09:52AM 35.3119 -86.0444 137° Southeast 481 554 30,800 -2,040 Descending Atlanta Center
09:53AM 35.2092 -85.9350 139° Southeast 481 554 28,700 -1,980 Descending Atlanta Center
09:54AM 35.1250 -85.8494 140° Southeast 466 536 26,900 -1,860 Descending Atlanta Center
09:55AM 35.0325 -85.7536 140° Southeast 448 516 25,000 -1,500 Descending Atlanta Center
09:56AM 34.9400 -85.6528 138° Southeast 448 516 24,000 -540 Descending Atlanta Center
09:57AM 34.8533 -85.5600 139° Southeast 443 510 24,000 -300 Level Atlanta Center
09:58AM 34.7647 -85.4647 139° Southeast 430 495 23,400 -1,560 Descending Atlanta Center
09:59AM 34.6719 -85.3672 139° Southeast 430 495 20,900 -2,640 Descending Atlanta Center
10:00AM 34.5811 -85.2725 139° Southeast 430 495 18,200 -2,640 Descending Atlanta Center
10:01AM 34.4944 -85.1781 138° Southeast 424 488 15,700 -2,400 Descending Atlanta Center
10:02AM 34.4117 -85.0889 138° Southeast 386 444 13,400 -2,160 Descending Atlanta Center
10:03AM 34.3372 -85.0125 140° Southeast 356 410 11,400 -2,040 Descending Atlanta Center
10:04AM 34.2628 -84.9361 140° Southeast 351 404 9,400 -1,680 Descending Atlanta Center
10:05AM 34.2006 -84.8700 139° Southeast 327 376 8,100 -840 Descending Atlanta Center
10:06AM 34.1361 -84.8194 147° Southeast 288 331 7,800 -900 Descending Atlanta Center
10:07AM 34.0739 -84.7686 146° Southeast 273 314 6,300 -1,380 Descending Atlanta Center
10:08AM 34.0408 -84.7006 120° Southeast 255 293 5,100 -660 Descending Atlanta Center
10:09AM 34.0142 -84.6328 115° Southeast 238 274 5,000 -60 Descending Atlanta Center
10:10AM 33.9894 -84.5700 115° Southeast 216 249 5,000  Level Atlanta Center
10:11AM 33.9625 -84.5047 116° Southeast 216 249 5,000 -720 Level Atlanta Center
10:12AM 33.9294 -84.4269 117° Southeast 228 262 3,600 -840 Descending Atlanta Center
10:14AM 33.8667 -84.3833 150° Southeast 162 186 3,000 -600 Descending Atlanta TRACON
10:15AM 33.8333 -84.3500 140° Southeast 155 178 2,200 -780 Descending Atlanta TRACON
10:16AM 33.8500 -84.3167 59° Northeast 155 178 1,500 -720 Descending Atlanta TRACON
10:18AM 33.8667 -84.3000 117° Southeast  Level FlightAware Approximate